CCA8666 ZYCC-ZBAD
Flight info
| Callsign | CCA8666 |
|---|---|
| Flight time | 1h 26m |
| Altitude | 36100 |
| Route | BUTET DCT TGO G212 BUMDU |
| Aircraft | B77W/H-SDE1E2E3FGHIJ2J3J4J5M1RWXY/LB1D1 |
Departure
| Time | 2026-04-29 14:29 |
|---|---|
| Airport | Changchun Longjia International Airport (ZYCC) |
Arrival
| Time | 2026-04-29 15:56 |
|---|---|
| Airport | Beijing Daxing International Airport (ZBAD) |
| Time | Latitude | Longitude | Altitude | Speed | Heading |
|---|---|---|---|---|---|
| 2026-04-29 13:56 | 43.99554 | 125.69872 | 721 ft | 0 kts | 229° |
| 2026-04-29 14:10 | 43.99559 | 125.69881 | 720 ft | 2 kts | 229° |
| 2026-04-29 14:10 | 43.99569 | 125.69896 | 720 ft | 2 kts | 229° |
| 2026-04-29 14:11 | 43.99579 | 125.69912 | 720 ft | 2 kts | 229° |
| 2026-04-29 14:11 | 43.99588 | 125.69929 | 720 ft | 2 kts | 249° |
| 2026-04-29 14:11 | 43.99591 | 125.69946 | 720 ft | 2 kts | 270° |
| 2026-04-29 14:11 | 43.99589 | 125.69967 | 720 ft | 2 kts | 290° |
| 2026-04-29 14:12 | 43.99582 | 125.69985 | 720 ft | 2 kts | 311° |
| 2026-04-29 14:12 | 43.99578 | 125.69991 | 720 ft | 0 kts | 320° |
| 2026-04-29 14:12 | 43.99595 | 125.69974 | 720 ft | 5 kts | 336° |
| 2026-04-29 14:12 | 43.99633 | 125.69967 | 720 ft | 5 kts | 5° |
| 2026-04-29 14:13 | 43.99661 | 125.69980 | 720 ft | 1 kts | 26° |
| 2026-04-29 14:13 | 43.99663 | 125.69981 | 720 ft | 0 kts | 26° |
| 2026-04-29 14:20 | 43.99664 | 125.69981 | 720 ft | 0 kts | 26° |
| 2026-04-29 14:20 | 43.99686 | 125.69997 | 720 ft | 6 kts | 31° |
| 2026-04-29 14:20 | 43.99729 | 125.70049 | 720 ft | 1 kts | 43° |
| 2026-04-29 14:21 | 43.99730 | 125.70050 | 720 ft | 0 kts | 48° |
| 2026-04-29 14:24 | 43.99731 | 125.70051 | 720 ft | 1 kts | 48° |
| 2026-04-29 14:24 | 43.99751 | 125.70078 | 720 ft | 6 kts | 30° |
| 2026-04-29 14:24 | 43.99808 | 125.70064 | 721 ft | 10 kts | 324° |
| 2026-04-29 14:25 | 43.99878 | 125.69985 | 720 ft | 14 kts | 319° |
| 2026-04-29 14:25 | 43.99964 | 125.69885 | 721 ft | 14 kts | 320° |
| 2026-04-29 14:25 | 44.00043 | 125.69791 | 720 ft | 15 kts | 319° |
| 2026-04-29 14:25 | 44.00108 | 125.69714 | 721 ft | 7 kts | 332° |
| 2026-04-29 14:26 | 44.00149 | 125.69726 | 720 ft | 7 kts | 33° |
| 2026-04-29 14:26 | 44.00191 | 125.69785 | 720 ft | 9 kts | 50° |
| 2026-04-29 14:26 | 44.00234 | 125.69855 | 720 ft | 11 kts | 50° |
| 2026-04-29 14:26 | 44.00289 | 125.69944 | 720 ft | 13 kts | 49° |
| 2026-04-29 14:27 | 44.00353 | 125.70046 | 721 ft | 14 kts | 49° |
| 2026-04-29 14:27 | 44.00415 | 125.70145 | 720 ft | 6 kts | 40° |
| 2026-04-29 14:27 | 44.00462 | 125.70142 | 720 ft | 8 kts | 325° |
| 2026-04-29 14:28 | 44.00520 | 125.70071 | 721 ft | 7 kts | 318° |
| 2026-04-29 14:28 | 44.00551 | 125.70027 | 721 ft | 4 kts | 298° |
| 2026-04-29 14:28 | 44.00549 | 125.70003 | 721 ft | 0 kts | 233° |
| 2026-04-29 14:28 | 44.00548 | 125.70003 | 721 ft | 0 kts | 233° |
| 2026-04-29 14:29 | 44.00546 | 125.69998 | 721 ft | 6 kts | 233° |
| 2026-04-29 14:29 | 44.00319 | 125.69625 | 721 ft | 97 kts | 229° |
| 2026-04-29 14:29 | 43.99688 | 125.68613 | 888 ft | 165 kts | 231° |
| 2026-04-29 14:29 | 43.98945 | 125.67358 | 1786 ft | 179 kts | 232° |
| 2026-04-29 14:30 | 43.98158 | 125.66059 | 2759 ft | 183 kts | 230° |
| 2026-04-29 14:30 | 43.97263 | 125.64686 | 3415 ft | 201 kts | 230° |
| 2026-04-29 14:30 | 43.96298 | 125.63155 | 4084 ft | 219 kts | 231° |
| 2026-04-29 14:30 | 43.95271 | 125.61504 | 4755 ft | 237 kts | 231° |
| 2026-04-29 14:31 | 43.94155 | 125.59709 | 5508 ft | 250 kts | 231° |
| 2026-04-29 14:31 | 43.92990 | 125.57839 | 6289 ft | 267 kts | 231° |
| 2026-04-29 14:31 | 43.91765 | 125.55872 | 7228 ft | 278 kts | 231° |
| 2026-04-29 14:31 | 43.90493 | 125.53836 | 8272 ft | 284 kts | 231° |
| 2026-04-29 14:32 | 43.89196 | 125.51758 | 9301 ft | 290 kts | 231° |
| 2026-04-29 14:32 | 43.88121 | 125.50037 | 10106 ft | 295 kts | 231° |
| 2026-04-29 14:32 | 43.84845 | 125.44794 | 11859 ft | 331 kts | 231° |
| 2026-04-29 14:33 | 43.83320 | 125.42358 | 12589 ft | 346 kts | 231° |
| 2026-04-29 14:33 | 43.81709 | 125.39785 | 13324 ft | 361 kts | 232° |
| 2026-04-29 14:33 | 43.80240 | 125.36896 | 14056 ft | 374 kts | 242° |
| 2026-04-29 14:33 | 43.79149 | 125.33608 | 14833 ft | 385 kts | 252° |
| 2026-04-29 14:34 | 43.78514 | 125.30005 | 15790 ft | 389 kts | 263° |
| 2026-04-29 14:34 | 43.78265 | 125.26254 | 16797 ft | 393 kts | 266° |
| 2026-04-29 14:34 | 43.78072 | 125.22492 | 17779 ft | 397 kts | 266° |
| 2026-04-29 14:34 | 43.77872 | 125.18679 | 18738 ft | 402 kts | 266° |
| 2026-04-29 14:35 | 43.77663 | 125.14790 | 19579 ft | 410 kts | 266° |
| 2026-04-29 14:35 | 43.77443 | 125.10845 | 20421 ft | 416 kts | 266° |
| 2026-04-29 14:35 | 43.77224 | 125.06880 | 21242 ft | 422 kts | 266° |
| 2026-04-29 14:35 | 43.76999 | 125.02823 | 22053 ft | 427 kts | 266° |
| 2026-04-29 14:36 | 43.76768 | 124.98710 | 22869 ft | 432 kts | 266° |
| 2026-04-29 14:36 | 43.76535 | 124.94602 | 23649 ft | 437 kts | 266° |
| 2026-04-29 14:36 | 43.76295 | 124.90391 | 24463 ft | 442 kts | 266° |
| 2026-04-29 14:36 | 43.76051 | 124.86147 | 25264 ft | 445 kts | 266° |
| 2026-04-29 14:37 | 43.75801 | 124.81841 | 25994 ft | 450 kts | 266° |
| 2026-04-29 14:37 | 43.75549 | 124.77527 | 26730 ft | 455 kts | 266° |
| 2026-04-29 14:37 | 43.75291 | 124.73159 | 27486 ft | 459 kts | 267° |
| 2026-04-29 14:37 | 43.75032 | 124.68794 | 28196 ft | 463 kts | 267° |
| 2026-04-29 14:38 | 43.74765 | 124.64326 | 28872 ft | 469 kts | 267° |
| 2026-04-29 14:38 | 43.74495 | 124.59843 | 29622 ft | 472 kts | 267° |
| 2026-04-29 14:38 | 43.74252 | 124.55840 | 30539 ft | 469 kts | 267° |
| 2026-04-29 14:38 | 43.74065 | 124.52763 | 31296 ft | 464 kts | 267° |
| 2026-04-29 14:39 | 43.72935 | 124.43689 | 33166 ft | 459 kts | 254° |
| 2026-04-29 14:39 | 43.71726 | 124.39614 | 33847 ft | 461 kts | 246° |
| 2026-04-29 14:39 | 43.70287 | 124.35614 | 34512 ft | 460 kts | 245° |
| 2026-04-29 14:40 | 43.69009 | 124.31595 | 35128 ft | 456 kts | 252° |
| 2026-04-29 14:40 | 43.68189 | 124.27410 | 35761 ft | 450 kts | 261° |
| 2026-04-29 14:40 | 43.67795 | 124.23127 | 36058 ft | 451 kts | 266° |
| 2026-04-29 14:41 | 43.67359 | 124.14516 | 36095 ft | 445 kts | 267° |
| 2026-04-29 14:41 | 43.66946 | 124.06210 | 36092 ft | 445 kts | 267° |
| 2026-04-29 14:42 | 43.66517 | 123.97723 | 36091 ft | 445 kts | 267° |
| 2026-04-29 14:42 | 43.66076 | 123.89167 | 36092 ft | 446 kts | 267° |
| 2026-04-29 14:43 | 43.65628 | 123.80606 | 36091 ft | 448 kts | 266° |
| 2026-04-29 14:43 | 43.65176 | 123.72079 | 36096 ft | 448 kts | 266° |
| 2026-04-29 14:44 | 43.64713 | 123.63478 | 36091 ft | 448 kts | 266° |
| 2026-04-29 14:44 | 43.64240 | 123.54816 | 36087 ft | 449 kts | 266° |
| 2026-04-29 14:45 | 43.63764 | 123.46227 | 36082 ft | 449 kts | 266° |
| 2026-04-29 14:45 | 43.63281 | 123.37622 | 36089 ft | 450 kts | 266° |
| 2026-04-29 14:46 | 43.62792 | 123.29033 | 36086 ft | 450 kts | 266° |
| 2026-04-29 14:46 | 43.62294 | 123.20397 | 36081 ft | 451 kts | 266° |
| 2026-04-29 14:47 | 43.61787 | 123.11709 | 36089 ft | 452 kts | 266° |
| 2026-04-29 14:47 | 43.61276 | 123.03079 | 36082 ft | 451 kts | 266° |
| 2026-04-29 14:48 | 43.60757 | 122.94424 | 36084 ft | 453 kts | 266° |
| 2026-04-29 14:48 | 43.60233 | 122.85783 | 36083 ft | 452 kts | 266° |
| 2026-04-29 14:49 | 43.59700 | 122.77112 | 36080 ft | 453 kts | 266° |
| 2026-04-29 14:49 | 43.59163 | 122.68492 | 36077 ft | 452 kts | 266° |
| 2026-04-29 14:50 | 43.58616 | 122.59809 | 36083 ft | 453 kts | 266° |
| 2026-04-29 14:50 | 43.58065 | 122.51178 | 36071 ft | 451 kts | 265° |
| 2026-04-29 14:51 | 43.57511 | 122.42592 | 36065 ft | 452 kts | 266° |
| 2026-04-29 14:51 | 43.56947 | 122.33945 | 36071 ft | 453 kts | 265° |
| 2026-04-29 14:52 | 43.56304 | 122.25331 | 36071 ft | 453 kts | 260° |
| 2026-04-29 14:52 | 43.54269 | 122.17108 | 36074 ft | 456 kts | 242° |
| 2026-04-29 14:53 | 43.50789 | 122.09772 | 36077 ft | 458 kts | 236° |
| 2026-04-29 14:53 | 43.47112 | 122.02583 | 36076 ft | 457 kts | 235° |
| 2026-04-29 14:54 | 43.43418 | 121.95423 | 36080 ft | 458 kts | 235° |
| 2026-04-29 14:54 | 43.39712 | 121.88278 | 36080 ft | 458 kts | 235° |
| 2026-04-29 14:55 | 43.35963 | 121.81082 | 36080 ft | 458 kts | 235° |
| 2026-04-29 14:55 | 43.32269 | 121.74015 | 36087 ft | 459 kts | 235° |
| 2026-04-29 14:56 | 43.28520 | 121.66863 | 36091 ft | 458 kts | 234° |
| 2026-04-29 14:56 | 43.24799 | 121.59783 | 36085 ft | 459 kts | 234° |
| 2026-04-29 14:57 | 43.21052 | 121.52672 | 36094 ft | 459 kts | 235° |
| 2026-04-29 14:57 | 43.17312 | 121.45589 | 36096 ft | 458 kts | 235° |
| 2026-04-29 14:58 | 43.13588 | 121.38557 | 36103 ft | 459 kts | 234° |
| 2026-04-29 14:58 | 43.09823 | 121.31462 | 36107 ft | 459 kts | 234° |
| 2026-04-29 14:59 | 43.06060 | 121.24389 | 36110 ft | 459 kts | 234° |
| 2026-04-29 14:59 | 43.02305 | 121.17346 | 36108 ft | 458 kts | 234° |
| 2026-04-29 15:00 | 42.98537 | 121.10298 | 36115 ft | 457 kts | 234° |
| 2026-04-29 15:00 | 42.94780 | 121.03287 | 36114 ft | 458 kts | 234° |
| 2026-04-29 15:01 | 42.91017 | 120.96281 | 36115 ft | 460 kts | 234° |
| 2026-04-29 15:01 | 42.87210 | 120.89208 | 36126 ft | 462 kts | 234° |
| 2026-04-29 15:02 | 42.83410 | 120.82167 | 36131 ft | 463 kts | 234° |
| 2026-04-29 15:02 | 42.79556 | 120.75041 | 36124 ft | 461 kts | 234° |
| 2026-04-29 15:03 | 42.75720 | 120.67966 | 36132 ft | 461 kts | 234° |
| 2026-04-29 15:03 | 42.71911 | 120.60957 | 36131 ft | 462 kts | 234° |
| 2026-04-29 15:04 | 42.68091 | 120.53946 | 36129 ft | 461 kts | 234° |
| 2026-04-29 15:04 | 42.64251 | 120.46913 | 36138 ft | 462 kts | 234° |
| 2026-04-29 15:05 | 42.60418 | 120.39911 | 36140 ft | 464 kts | 234° |
| 2026-04-29 15:05 | 42.56544 | 120.32849 | 36137 ft | 462 kts | 233° |
| 2026-04-29 15:06 | 42.52689 | 120.25839 | 36138 ft | 464 kts | 233° |
| 2026-04-29 15:06 | 42.48796 | 120.18775 | 36140 ft | 464 kts | 233° |
| 2026-04-29 15:07 | 42.44918 | 120.11757 | 36145 ft | 465 kts | 233° |
| 2026-04-29 15:07 | 42.41027 | 120.04731 | 36143 ft | 465 kts | 233° |
| 2026-04-29 15:08 | 42.37138 | 119.97725 | 36137 ft | 466 kts | 233° |
| 2026-04-29 15:08 | 42.33232 | 119.90705 | 36147 ft | 468 kts | 233° |
| 2026-04-29 15:09 | 42.29336 | 119.83719 | 36147 ft | 467 kts | 233° |
| 2026-04-29 15:09 | 42.25440 | 119.76748 | 36160 ft | 467 kts | 233° |
| 2026-04-29 15:10 | 42.21524 | 119.69761 | 36153 ft | 467 kts | 233° |
| 2026-04-29 15:10 | 42.17610 | 119.62791 | 36155 ft | 467 kts | 233° |
| 2026-04-29 15:11 | 42.13663 | 119.55778 | 36168 ft | 469 kts | 232° |
| 2026-04-29 15:11 | 42.09810 | 119.48949 | 36159 ft | 467 kts | 232° |
| 2026-04-29 15:12 | 42.05881 | 119.42002 | 36162 ft | 467 kts | 232° |
| 2026-04-29 15:12 | 42.01926 | 119.35023 | 36151 ft | 469 kts | 232° |
| 2026-04-29 15:13 | 41.97973 | 119.28065 | 36152 ft | 468 kts | 232° |
| 2026-04-29 15:13 | 41.93980 | 119.21053 | 36148 ft | 469 kts | 232° |
| 2026-04-29 15:14 | 41.90041 | 119.14150 | 36142 ft | 468 kts | 232° |
| 2026-04-29 15:14 | 41.86062 | 119.07195 | 36150 ft | 468 kts | 231° |
| 2026-04-29 15:15 | 41.82091 | 119.00270 | 36152 ft | 469 kts | 232° |
| 2026-04-29 15:15 | 41.78091 | 118.93310 | 36177 ft | 468 kts | 232° |
| 2026-04-29 15:16 | 41.74099 | 118.86379 | 36193 ft | 469 kts | 232° |
| 2026-04-29 15:16 | 41.70122 | 118.79489 | 36205 ft | 468 kts | 232° |
| 2026-04-29 15:17 | 41.66117 | 118.72568 | 35954 ft | 476 kts | 231° |
| 2026-04-29 15:17 | 41.64079 | 118.69052 | 35525 ft | 480 kts | 231° |
| 2026-04-29 15:17 | 41.62024 | 118.65511 | 35060 ft | 480 kts | 231° |
| 2026-04-29 15:17 | 41.59964 | 118.61964 | 34496 ft | 479 kts | 231° |
| 2026-04-29 15:18 | 41.57921 | 118.58452 | 33843 ft | 483 kts | 231° |
| 2026-04-29 15:18 | 41.55857 | 118.54910 | 33195 ft | 488 kts | 231° |
| 2026-04-29 15:18 | 41.53759 | 118.51311 | 32538 ft | 491 kts | 231° |
| 2026-04-29 15:18 | 41.51660 | 118.47714 | 31885 ft | 491 kts | 232° |
| 2026-04-29 15:19 | 41.49550 | 118.44104 | 31232 ft | 492 kts | 232° |
| 2026-04-29 15:19 | 41.47617 | 118.40387 | 30583 ft | 495 kts | 239° |
| 2026-04-29 15:19 | 41.45847 | 118.36417 | 29906 ft | 498 kts | 240° |
| 2026-04-29 15:19 | 41.44092 | 118.32464 | 29228 ft | 499 kts | 239° |
| 2026-04-29 15:20 | 41.42327 | 118.28524 | 28551 ft | 497 kts | 239° |
| 2026-04-29 15:20 | 41.40579 | 118.24651 | 27887 ft | 493 kts | 239° |
| 2026-04-29 15:20 | 41.38792 | 118.20717 | 27209 ft | 488 kts | 238° |
| 2026-04-29 15:20 | 41.37088 | 118.16980 | 26563 ft | 484 kts | 238° |
| 2026-04-29 15:21 | 41.35319 | 118.13119 | 25890 ft | 480 kts | 238° |
| 2026-04-29 15:21 | 41.33593 | 118.09362 | 25229 ft | 475 kts | 238° |
| 2026-04-29 15:21 | 41.31872 | 118.05627 | 24547 ft | 471 kts | 238° |
| 2026-04-29 15:21 | 41.30167 | 118.01934 | 23876 ft | 466 kts | 238° |
| 2026-04-29 15:22 | 41.28465 | 117.98258 | 23206 ft | 462 kts | 238° |
| 2026-04-29 15:22 | 41.26779 | 117.94621 | 22537 ft | 458 kts | 238° |
| 2026-04-29 15:22 | 41.25129 | 117.91068 | 21884 ft | 454 kts | 238° |
| 2026-04-29 15:22 | 41.23478 | 117.87517 | 21225 ft | 450 kts | 238° |
| 2026-04-29 15:23 | 41.21837 | 117.83993 | 20579 ft | 446 kts | 238° |
| 2026-04-29 15:23 | 41.20230 | 117.80547 | 19942 ft | 441 kts | 238° |
| 2026-04-29 15:23 | 41.18610 | 117.77077 | 19299 ft | 437 kts | 238° |
| 2026-04-29 15:23 | 41.17017 | 117.73671 | 18674 ft | 433 kts | 238° |
| 2026-04-29 15:24 | 41.15426 | 117.70271 | 18045 ft | 429 kts | 238° |
| 2026-04-29 15:24 | 41.13863 | 117.66936 | 17433 ft | 425 kts | 238° |
| 2026-04-29 15:24 | 41.12324 | 117.63655 | 16817 ft | 421 kts | 238° |
| 2026-04-29 15:24 | 41.10772 | 117.60352 | 16183 ft | 417 kts | 238° |
| 2026-04-29 15:25 | 41.09246 | 117.57106 | 15565 ft | 414 kts | 238° |
| 2026-04-29 15:25 | 41.07729 | 117.53883 | 14944 ft | 410 kts | 238° |
| 2026-04-29 15:25 | 41.06223 | 117.50719 | 14346 ft | 405 kts | 236° |
| 2026-04-29 15:25 | 41.04494 | 117.47852 | 13939 ft | 395 kts | 226° |
| 2026-04-29 15:26 | 41.02486 | 117.45426 | 13888 ft | 389 kts | 217° |
| 2026-04-29 15:26 | 41.00212 | 117.43411 | 13879 ft | 389 kts | 208° |
| 2026-04-29 15:26 | 40.97780 | 117.41873 | 13877 ft | 388 kts | 201° |
| 2026-04-29 15:26 | 40.95298 | 117.40532 | 13878 ft | 374 kts | 201° |
| 2026-04-29 15:27 | 40.92950 | 117.39275 | 13881 ft | 355 kts | 201° |
| 2026-04-29 15:27 | 40.90719 | 117.38088 | 13884 ft | 338 kts | 200° |
| 2026-04-29 15:27 | 40.88583 | 117.36964 | 13884 ft | 322 kts | 200° |
| 2026-04-29 15:27 | 40.86548 | 117.35907 | 13884 ft | 307 kts | 200° |
| 2026-04-29 15:28 | 40.84660 | 117.34938 | 13886 ft | 293 kts | 199° |
| 2026-04-29 15:28 | 40.83354 | 117.34270 | 13874 ft | 286 kts | 199° |
| 2026-04-29 15:28 | 40.80845 | 117.32996 | 13300 ft | 294 kts | 199° |
| 2026-04-29 15:28 | 40.78926 | 117.32021 | 12775 ft | 301 kts | 199° |
| 2026-04-29 15:29 | 40.76936 | 117.30981 | 12020 ft | 314 kts | 203° |
| 2026-04-29 15:29 | 40.73222 | 117.27885 | 10471 ft | 320 kts | 221° |
| 2026-04-29 15:30 | 40.70319 | 117.23459 | 9240 ft | 318 kts | 238° |
| 2026-04-29 15:30 | 40.69282 | 117.20894 | 8848 ft | 315 kts | 247° |
| 2026-04-29 15:30 | 40.68535 | 117.18255 | 8596 ft | 307 kts | 253° |
| 2026-04-29 15:30 | 40.67857 | 117.15610 | 8441 ft | 298 kts | 252° |
| 2026-04-29 15:31 | 40.67180 | 117.13070 | 8105 ft | 291 kts | 252° |
| 2026-04-29 15:31 | 40.66497 | 117.10577 | 7624 ft | 286 kts | 251° |
| 2026-04-29 15:31 | 40.65821 | 117.08141 | 7134 ft | 282 kts | 251° |
| 2026-04-29 15:31 | 40.65150 | 117.05730 | 6640 ft | 278 kts | 251° |
| 2026-04-29 15:32 | 40.64490 | 117.03366 | 6158 ft | 275 kts | 251° |
| 2026-04-29 15:32 | 40.63841 | 117.01042 | 5906 ft | 264 kts | 251° |
| 2026-04-29 15:32 | 40.63203 | 116.98762 | 5667 ft | 261 kts | 251° |
| 2026-04-29 15:32 | 40.62584 | 116.96548 | 5423 ft | 258 kts | 251° |
| 2026-04-29 15:33 | 40.61962 | 116.94327 | 5173 ft | 256 kts | 251° |
| 2026-04-29 15:33 | 40.61354 | 116.92158 | 4928 ft | 253 kts | 250° |
| 2026-04-29 15:33 | 40.60638 | 116.90051 | 4675 ft | 251 kts | 242° |
| 2026-04-29 15:33 | 40.59683 | 116.88155 | 4423 ft | 249 kts | 232° |
| 2026-04-29 15:34 | 40.58505 | 116.86491 | 4173 ft | 247 kts | 223° |
| 2026-04-29 15:34 | 40.57205 | 116.85029 | 4064 ft | 239 kts | 221° |
| 2026-04-29 15:34 | 40.55927 | 116.83601 | 4069 ft | 251 kts | 221° |
| 2026-04-29 15:34 | 40.54565 | 116.82070 | 4072 ft | 261 kts | 221° |
| 2026-04-29 15:35 | 40.53163 | 116.80492 | 4074 ft | 264 kts | 221° |
| 2026-04-29 15:35 | 40.51774 | 116.78928 | 4073 ft | 264 kts | 221° |
| 2026-04-29 15:35 | 40.50378 | 116.77357 | 4058 ft | 264 kts | 221° |
| 2026-04-29 15:35 | 40.48982 | 116.75787 | 4058 ft | 264 kts | 221° |
| 2026-04-29 15:36 | 40.47579 | 116.74210 | 4056 ft | 264 kts | 221° |
| 2026-04-29 15:36 | 40.46182 | 116.72639 | 4056 ft | 264 kts | 221° |
| 2026-04-29 15:36 | 40.44780 | 116.71066 | 4056 ft | 264 kts | 221° |
| 2026-04-29 15:36 | 40.43387 | 116.69502 | 4056 ft | 265 kts | 221° |
| 2026-04-29 15:37 | 40.41920 | 116.68026 | 4051 ft | 265 kts | 213° |
| 2026-04-29 15:37 | 40.40255 | 116.66952 | 4050 ft | 266 kts | 204° |
| 2026-04-29 15:37 | 40.38532 | 116.66031 | 4051 ft | 266 kts | 203° |
| 2026-04-29 15:37 | 40.36814 | 116.65116 | 4048 ft | 266 kts | 203° |
| 2026-04-29 15:38 | 40.35100 | 116.64202 | 4050 ft | 266 kts | 203° |
| 2026-04-29 15:38 | 40.33370 | 116.63278 | 4055 ft | 266 kts | 203° |
| 2026-04-29 15:38 | 40.31606 | 116.62335 | 4072 ft | 274 kts | 204° |
| 2026-04-29 15:38 | 40.29827 | 116.61386 | 4068 ft | 277 kts | 203° |
| 2026-04-29 15:39 | 40.28039 | 116.60432 | 4066 ft | 276 kts | 203° |
| 2026-04-29 15:39 | 40.26253 | 116.59480 | 4069 ft | 276 kts | 203° |
| 2026-04-29 15:39 | 40.24477 | 116.58534 | 4076 ft | 276 kts | 203° |
| 2026-04-29 15:39 | 40.22691 | 116.57582 | 4086 ft | 277 kts | 203° |
| 2026-04-29 15:40 | 40.20902 | 116.56630 | 4106 ft | 277 kts | 203° |
| 2026-04-29 15:40 | 40.19112 | 116.55678 | 4106 ft | 276 kts | 203° |
| 2026-04-29 15:40 | 40.17335 | 116.54733 | 4107 ft | 276 kts | 203° |
| 2026-04-29 15:40 | 40.15543 | 116.53781 | 4107 ft | 277 kts | 203° |
| 2026-04-29 15:41 | 40.13778 | 116.52844 | 4108 ft | 277 kts | 203° |
| 2026-04-29 15:41 | 40.11999 | 116.51899 | 4038 ft | 273 kts | 203° |
| 2026-04-29 15:41 | 40.10249 | 116.50972 | 3901 ft | 265 kts | 204° |
| 2026-04-29 15:41 | 40.08570 | 116.50082 | 3705 ft | 259 kts | 204° |
| 2026-04-29 15:42 | 40.06926 | 116.49210 | 3513 ft | 254 kts | 204° |
| 2026-04-29 15:42 | 40.05309 | 116.48354 | 3376 ft | 246 kts | 204° |
| 2026-04-29 15:42 | 40.03764 | 116.47536 | 3249 ft | 239 kts | 204° |
| 2026-04-29 15:42 | 40.02232 | 116.46726 | 3113 ft | 233 kts | 204° |
| 2026-04-29 15:43 | 40.00728 | 116.45930 | 2993 ft | 231 kts | 204° |
| 2026-04-29 15:43 | 39.99246 | 116.45146 | 2861 ft | 229 kts | 204° |
| 2026-04-29 15:43 | 39.97766 | 116.44363 | 2733 ft | 229 kts | 204° |
| 2026-04-29 15:43 | 39.96294 | 116.43587 | 2604 ft | 228 kts | 204° |
| 2026-04-29 15:44 | 39.95028 | 116.42918 | 2500 ft | 228 kts | 204° |
| 2026-04-29 15:44 | 39.93562 | 116.42145 | 2376 ft | 226 kts | 204° |
| 2026-04-29 15:44 | 39.92104 | 116.41376 | 2251 ft | 226 kts | 204° |
| 2026-04-29 15:44 | 39.90652 | 116.40610 | 2122 ft | 225 kts | 204° |
| 2026-04-29 15:45 | 39.89185 | 116.39838 | 1994 ft | 225 kts | 204° |
| 2026-04-29 15:45 | 39.87728 | 116.39070 | 1895 ft | 223 kts | 204° |
| 2026-04-29 15:45 | 39.86288 | 116.38313 | 1881 ft | 223 kts | 204° |
| 2026-04-29 15:45 | 39.84848 | 116.37555 | 1880 ft | 223 kts | 204° |
| 2026-04-29 15:46 | 39.83421 | 116.36804 | 1876 ft | 215 kts | 204° |
| 2026-04-29 15:46 | 39.82085 | 116.36103 | 1875 ft | 199 kts | 204° |
| 2026-04-29 15:46 | 39.80837 | 116.35447 | 1874 ft | 190 kts | 204° |
| 2026-04-29 15:46 | 39.79608 | 116.34802 | 1877 ft | 187 kts | 202° |
| 2026-04-29 15:47 | 39.78317 | 116.34562 | 1879 ft | 187 kts | 179° |
| 2026-04-29 15:47 | 39.77012 | 116.34703 | 1882 ft | 189 kts | 176° |
| 2026-04-29 15:47 | 39.75694 | 116.34899 | 1881 ft | 190 kts | 175° |
| 2026-04-29 15:47 | 39.74393 | 116.35110 | 1882 ft | 190 kts | 175° |
| 2026-04-29 15:48 | 39.73125 | 116.35320 | 1876 ft | 174 kts | 175° |
| 2026-04-29 15:48 | 39.71972 | 116.35513 | 1872 ft | 159 kts | 175° |
| 2026-04-29 15:48 | 39.70924 | 116.35684 | 1881 ft | 147 kts | 176° |
| 2026-04-29 15:48 | 39.69914 | 116.35845 | 1879 ft | 143 kts | 176° |
| 2026-04-29 15:49 | 39.68943 | 116.35998 | 1881 ft | 141 kts | 176° |
| 2026-04-29 15:49 | 39.67966 | 116.36153 | 1885 ft | 140 kts | 177° |
| 2026-04-29 15:49 | 39.66995 | 116.36307 | 1885 ft | 139 kts | 177° |
| 2026-04-29 15:49 | 39.66027 | 116.36459 | 1884 ft | 139 kts | 177° |
| 2026-04-29 15:50 | 39.65062 | 116.36612 | 1884 ft | 140 kts | 176° |
| 2026-04-29 15:50 | 39.64079 | 116.36769 | 1884 ft | 141 kts | 176° |
| 2026-04-29 15:50 | 39.63102 | 116.36925 | 1885 ft | 141 kts | 176° |
| 2026-04-29 15:50 | 39.62123 | 116.37080 | 1884 ft | 141 kts | 176° |
| 2026-04-29 15:51 | 39.61153 | 116.37234 | 1886 ft | 140 kts | 176° |
| 2026-04-29 15:51 | 39.60171 | 116.37389 | 1756 ft | 141 kts | 176° |
| 2026-04-29 15:51 | 39.59199 | 116.37544 | 1577 ft | 139 kts | 176° |
| 2026-04-29 15:51 | 39.58232 | 116.37698 | 1394 ft | 138 kts | 175° |
| 2026-04-29 15:52 | 39.58131 | 116.37714 | 1375 ft | 138 kts | 175° |
| 2026-04-29 15:52 | 39.57816 | 116.37764 | 1315 ft | 138 kts | 175° |
| 2026-04-29 15:52 | 39.56864 | 116.37915 | 1134 ft | 137 kts | 176° |
| 2026-04-29 15:52 | 39.56123 | 116.38032 | 992 ft | 136 kts | 175° |
| 2026-04-29 15:53 | 39.56102 | 116.38036 | 988 ft | 136 kts | 175° |
| 2026-04-29 15:54 | 39.55305 | 116.38162 | 834 ft | 135 kts | 175° |
| 2026-04-29 15:54 | 39.54465 | 116.38296 | 672 ft | 134 kts | 175° |
| 2026-04-29 15:55 | 39.53534 | 116.38444 | 491 ft | 133 kts | 175° |
| 2026-04-29 15:55 | 39.52623 | 116.38588 | 313 ft | 133 kts | 175° |
| 2026-04-29 15:55 | 39.51696 | 116.38734 | 138 ft | 132 kts | 174° |
| 2026-04-29 15:55 | 39.50822 | 116.38865 | 98 ft | 113 kts | 174° |
| 2026-04-29 15:56 | 39.50137 | 116.38982 | 97 ft | 82 kts | 173° |
| 2026-04-29 15:56 | 39.49713 | 116.39054 | 97 ft | 48 kts | 174° |
| 2026-04-29 15:56 | 39.49470 | 116.39108 | 97 ft | 38 kts | 164° |
| 2026-04-29 15:56 | 39.49261 | 116.39252 | 97 ft | 24 kts | 152° |
| 2026-04-29 15:57 | 39.49149 | 116.39349 | 97 ft | 15 kts | 145° |
| 2026-04-29 15:57 | 39.49059 | 116.39428 | 97 ft | 15 kts | 146° |
| 2026-04-29 15:57 | 39.49002 | 116.39510 | 97 ft | 8 kts | 92° |
| 2026-04-29 15:57 | 39.49043 | 116.39555 | 97 ft | 8 kts | 1° |
| 2026-04-29 15:58 | 39.49110 | 116.39540 | 97 ft | 10 kts | 14° |
| 2026-04-29 15:58 | 39.49154 | 116.39628 | 97 ft | 14 kts | 80° |
| 2026-04-29 15:58 | 39.49163 | 116.39785 | 97 ft | 19 kts | 84° |
| 2026-04-29 15:58 | 39.49174 | 116.39847 | 97 ft | 0 kts | 34° |
| 2026-04-29 16:00 | 39.49178 | 116.39851 | 97 ft | 0 kts | 40° |
| 2026-04-29 16:00 | 39.49181 | 116.39858 | 97 ft | 3 kts | 66° |
| 2026-04-29 16:01 | 39.49183 | 116.39879 | 97 ft | 2 kts | 86° |
| 2026-04-29 16:01 | 39.49176 | 116.40003 | 97 ft | 23 kts | 127° |
| 2026-04-29 16:01 | 39.49068 | 116.40128 | 97 ft | 18 kts | 89° |
| 2026-04-29 16:01 | 39.49078 | 116.40268 | 97 ft | 8 kts | 81° |
| 2026-04-29 16:02 | 39.49083 | 116.40317 | 97 ft | 3 kts | 81° |
| 2026-04-29 16:02 | 39.49091 | 116.40354 | 97 ft | 1 kts | 58° |
| 2026-04-29 16:02 | 39.49111 | 116.40371 | 97 ft | 6 kts | 11° |
| 2026-04-29 16:02 | 39.49178 | 116.40363 | 97 ft | 13 kts | 352° |
| 2026-04-29 16:03 | 39.49313 | 116.40340 | 97 ft | 21 kts | 351° |
| 2026-04-29 16:03 | 39.49465 | 116.40317 | 97 ft | 22 kts | 352° |
| 2026-04-29 16:03 | 39.49625 | 116.40292 | 97 ft | 23 kts | 354° |
| 2026-04-29 16:03 | 39.49792 | 116.40266 | 97 ft | 24 kts | 352° |
| 2026-04-29 16:04 | 39.49953 | 116.40237 | 97 ft | 22 kts | 351° |
| 2026-04-29 16:04 | 39.50081 | 116.40234 | 97 ft | 15 kts | 37° |
| 2026-04-29 16:04 | 39.50120 | 116.40379 | 97 ft | 18 kts | 89° |
| 2026-04-29 16:04 | 39.50147 | 116.40618 | 97 ft | 35 kts | 82° |
| 2026-04-29 16:05 | 39.50167 | 116.40840 | 97 ft | 20 kts | 84° |
| 2026-04-29 16:05 | 39.50185 | 116.41040 | 97 ft | 23 kts | 83° |
| 2026-04-29 16:05 | 39.50205 | 116.41256 | 97 ft | 17 kts | 81° |
| 2026-04-29 16:05 | 39.50221 | 116.41399 | 97 ft | 14 kts | 87° |
| 2026-04-29 16:06 | 39.50170 | 116.41502 | 97 ft | 15 kts | 131° |
| 2026-04-29 16:06 | 39.50151 | 116.41650 | 97 ft | 19 kts | 78° |
| 2026-04-29 16:06 | 39.50173 | 116.41837 | 97 ft | 23 kts | 84° |
| 2026-04-29 16:06 | 39.50194 | 116.42061 | 97 ft | 26 kts | 83° |
| 2026-04-29 16:07 | 39.50216 | 116.42261 | 97 ft | 17 kts | 61° |
| 2026-04-29 16:07 | 39.50325 | 116.42291 | 97 ft | 17 kts | 353° |
| 2026-04-29 16:07 | 39.50453 | 116.42271 | 97 ft | 19 kts | 353° |
| 2026-04-29 16:07 | 39.50598 | 116.42250 | 97 ft | 21 kts | 352° |
| 2026-04-29 16:08 | 39.50753 | 116.42224 | 97 ft | 23 kts | 353° |
| 2026-04-29 16:08 | 39.50916 | 116.42199 | 97 ft | 23 kts | 351° |
| 2026-04-29 16:08 | 39.51086 | 116.42170 | 97 ft | 25 kts | 353° |
| 2026-04-29 16:08 | 39.51268 | 116.42145 | 97 ft | 27 kts | 353° |
| 2026-04-29 16:09 | 39.51459 | 116.42114 | 97 ft | 24 kts | 352° |
| 2026-04-29 16:09 | 39.51568 | 116.42091 | 97 ft | 11 kts | 336° |
| 2026-04-29 16:09 | 39.51599 | 116.42038 | 97 ft | 6 kts | 263° |
| 2026-04-29 16:09 | 39.51574 | 116.42000 | 97 ft | 5 kts | 209° |
| 2026-04-29 16:10 | 39.51548 | 116.41966 | 97 ft | 4 kts | 252° |
| 2026-04-29 16:10 | 39.51545 | 116.41943 | 97 ft | 2 kts | 263° |
| 2026-04-29 16:10 | 39.51543 | 116.41914 | 97 ft | 3 kts | 263° |
| 2026-04-29 16:10 | 39.51541 | 116.41903 | 97 ft | 0 kts | 263° |
| 2026-04-29 16:22 | 39.51542 | 116.41903 | 97 ft | 0 kts | 329° |
| 2026-04-29 16:22 | 39.51543 | 116.41903 | 97 ft | 0 kts | 29° |
| 2026-04-29 16:24 | 39.51544 | 116.41903 | 97 ft | 0 kts | 133° |
| 2026-04-29 16:24 | 39.51545 | 116.41903 | 97 ft | 0 kts | 268° |
| 2026-04-29 16:28 | 39.51601 | 116.41929 | 97 ft | 0 kts | 46° |
| 2026-04-29 16:28 | 39.51714 | 116.41924 | 97 ft | 0 kts | 46° |
| 2026-04-29 16:28 | 39.51777 | 116.41954 | 97 ft | 1 kts | 185° |
| 2026-04-29 16:28 | 39.51577 | 116.41887 | 97 ft | 0 kts | 75° |
| 2026-04-29 16:29 | 39.51617 | 116.41897 | 97 ft | 0 kts | 79° |
| 2026-04-29 16:30 | 39.51718 | 116.41806 | 97 ft | 0 kts | 79° |
| 2026-04-29 16:30 | 39.51724 | 116.41808 | 97 ft | 0 kts | 89° |
| 2026-04-29 16:30 | 39.51726 | 116.41809 | 97 ft | 0 kts | 89° |
| 2026-04-29 16:31 | 39.51741 | 116.41827 | 97 ft | 1 kts | 68° |
| 2026-04-29 16:31 | 39.51754 | 116.41820 | 97 ft | 0 kts | 142° |
| 2026-04-29 16:31 | 39.51752 | 116.41818 | 97 ft | 0 kts | 144° |
| 2026-04-29 16:31 | 39.51754 | 116.41820 | 97 ft | 0 kts | 144° |
| 2026-04-29 16:32 | 39.51759 | 116.41836 | 97 ft | 0 kts | 174° |